Time;durP1;ratioP1;P1;durP2;ratioP2;P2;SDS_P1;SDS_P2;PMS_P1;PMS_P2;Temp;Humidity;BMP_temperature;BMP_pressure;BME280_temperature;BME280_humidity;BME280_pressure;Samples;Min_cycle;Max_cycle;Signal;HPM_P1;HPM_P2
2023/04/06 00:01:58;;;;;;;;;;;;;;;20.29;41.25;101612.88;4967468;28;2374;-62
2023/04/06 00:04:24;;;;;;;;;;;;;;;20.29;41.22;101618.63;4969447;28;1580;-62
2023/04/06 00:06:51;;;;;;;;;;;;;;;20.28;41.37;101609.25;4969596;28;1624;-62
2023/04/06 00:09:17;;;;;;;;;;;;;;;20.27;41.25;101615.63;4967930;28;2456;-62
2023/04/06 00:11:43;;;;;;;;;;;;;;;20.27;41.34;101610.66;4968096;28;2441;-63
2023/04/06 00:14:10;;;;;;;;;;;;;;;20.26;41.44;101614.16;4969223;28;2946;-62
2023/04/06 00:16:36;;;;;;;;;;;;;;;20.26;41.36;101614.16;4968558;28;2454;-63
2023/04/06 00:19:02;;;;;;;;;;;;;;;20.25;41.59;101606.91;4969544;28;1599;-62
2023/04/06 00:21:30;;;;;;;;;;;;;;;20.25;41.40;101612.66;4968342;28;1767;-63
2023/04/06 00:23:57;;;;;;;;;;;;;;;20.26;41.28;101614.16;4968658;28;2608;-62
2023/04/06 00:26:23;;;;;;;;;;;;;;;20.26;41.40;101605.53;4968816;28;1711;-62
2023/04/06 00:28:51;;;;;;;;;;;;;;;20.27;41.32;101607.00;4951256;28;2377;-63
2023/04/06 00:31:18;;;;;;;;;;;;;;;20.27;41.35;101602.03;4966015;28;1837;-62
2023/04/06 00:33:44;;;;;;;;;;;;;;;20.29;41.33;101598.50;4967468;28;2308;-62
2023/04/06 00:36:10;;;;;;;;;;;;;;;20.29;41.32;101601.38;4966969;28;1880;-62
2023/04/06 00:38:37;;;;;;;;;;;;;;;20.30;41.40;101602.91;4967161;28;2611;-63
2023/04/06 00:41:03;;;;;;;;;;;;;;;20.29;41.19;101601.38;4969015;28;1623;-62
2023/04/06 00:43:30;;;;;;;;;;;;;;;20.29;41.28;101601.38;4965891;28;2695;-62
2023/04/06 00:45:56;;;;;;;;;;;;;;;20.27;41.34;101599.16;4965094;28;2669;-63
2023/04/06 00:48:22;;;;;;;;;;;;;;;20.28;41.37;101594.16;4969100;28;1596;-63
2023/04/06 00:50:49;;;;;;;;;;;;;;;20.27;41.75;101592.63;4967654;28;2615;-62
2023/04/06 00:53:17;;;;;;;;;;;;;;;20.25;41.39;101595.41;4966731;28;2674;-62
2023/04/06 00:55:43;;;;;;;;;;;;;;;20.25;41.39;101590.41;4949639;28;1823;-63
2023/04/06 00:58:10;;;;;;;;;;;;;;;20.25;41.39;101601.16;4950699;28;1997;-62
2023/04/06 01:00:45;;;;;;;;;;;;;;;20.23;41.39;101592.41;4949028;28;2390;-62
2023/04/06 01:03:16;;;;;;;;;;;;;;;20.24;41.33;101588.16;4962417;28;2373;-62
2023/04/06 01:05:43;;;;;;;;;;;;;;;20.23;41.55;101586.66;4967996;28;1537;-62
2023/04/06 01:08:18;;;;;;;;;;;;;;;20.25;41.27;101589.66;4942745;28;1907;-62
2023/04/06 01:10:45;;;;;;;;;;;;;;;20.25;41.40;101592.53;4948266;28;1895;-63
2023/04/06 01:13:23;;;;;;;;;;;;;;;20.26;41.32;101573.88;4949765;28;2512;-62
2023/04/06 01:15:56;;;;;;;;;;;;;;;20.27;41.33;101584.78;4967888;28;2417;-62
2023/04/06 01:18:32;;;;;;;;;;;;;;;20.28;41.28;101588.38;4949691;28;2678;-63
2023/04/06 01:21:15;;;;;;;;;;;;;;;20.28;41.37;101594.16;4935696;28;2586;-63
2023/04/06 01:23:53;;;;;;;;;;;;;;;20.27;41.39;101592.63;4965995;28;2264;-62
2023/04/06 01:26:26;;;;;;;;;;;;;;;20.26;41.30;101580.38;4950684;28;1808;-63
2023/04/06 01:28:53;;;;;;;;;;;;;;;20.26;41.34;101586.13;4944648;28;2487;-62
2023/04/06 01:31:24;;;;;;;;;;;;;;;20.25;41.30;101590.41;4961232;28;2737;-62
2023/04/06 01:33:51;;;;;;;;;;;;;;;20.26;41.36;101574.63;4963821;28;1906;-62
2023/04/06 01:36:21;;;;;;;;;;;;;;;20.25;41.35;101589.66;4951577;28;2829;-62
2023/04/06 01:38:54;;;;;;;;;;;;;;;20.23;41.50;101581.66;4947571;28;2388;-62
2023/04/06 01:41:29;;;;;;;;;;;;;;;20.23;41.42;101587.41;4949512;28;1726;-62
2023/04/06 01:43:55;;;;;;;;;;;;;;;20.23;41.29;101583.78;4939930;28;2427;-63
2023/04/06 01:46:27;;;;;;;;;;;;;;;20.24;41.36;101588.16;4949592;28;1811;-62
2023/04/06 01:48:54;;;;;;;;;;;;;;;20.25;41.36;101589.66;4955986;28;1889;-62
2023/04/06 01:51:30;;;;;;;;;;;;;;;20.25;41.27;101586.78;4946617;28;2683;-63
2023/04/06 01:53:59;;;;;;;;;;;;;;;20.25;41.24;101587.53;4952260;28;1819;-63
2023/04/06 01:56:36;;;;;;;;;;;;;;;20.27;41.16;101575.38;4942395;28;1978;-62
2023/04/06 01:59:13;;;;;;;;;;;;;;;20.26;41.43;101576.75;4963802;28;2576;-62
2023/04/06 02:01:42;;;;;;;;;;;;;;;20.25;41.12;101576.03;4947631;28;1641;-62
2023/04/06 02:04:08;;;;;;;;;;;;;;;20.25;41.38;101572.41;4953544;28;1670;-62
2023/04/06 02:06:35;;;;;;;;;;;;;;;20.24;41.40;101571.63;4949795;28;2555;-62
2023/04/06 02:09:04;;;;;;;;;;;;;;;20.24;41.41;101577.38;4965742;28;1703;-62
2023/04/06 02:11:31;;;;;;;;;;;;;;;20.22;41.47;101574.38;4949139;28;2672;-62
2023/04/06 02:13:57;;;;;;;;;;;;;;;20.22;41.40;101574.38;4970399;28;1620;-63
2023/04/06 02:16:28;;;;;;;;;;;;;;;20.21;41.44;101577.91;4949255;28;1587;-62
2023/04/06 02:18:54;;;;;;;;;;;;;;;20.20;41.36;101577.16;4969231;28;1963;-63
2023/04/06 02:21:21;;;;;;;;;;;;;;;20.21;41.33;101569.28;4953754;28;2336;-63
2023/04/06 02:23:47;;;;;;;;;;;;;;;20.20;41.45;101573.53;4969183;28;1849;-63
2023/04/06 02:26:13;;;;;;;;;;;;;;;20.21;41.37;101567.16;4971416;28;1849;-63
2023/04/06 02:28:40;;;;;;;;;;;;;;;20.24;41.37;101573.78;4967911;28;2578;-63
2023/04/06 02:31:07;;;;;;;;;;;;;;;20.22;41.51;101574.38;4969316;28;2986;-63
2023/04/06 02:33:33;;;;;;;;;;;;;;;20.24;41.33;101582.41;4952455;28;2462;-63
2023/04/06 02:35:59;;;;;;;;;;;;;;;20.23;41.38;101575.91;4970209;28;1779;-63
2023/04/06 02:38:27;;;;;;;;;;;;;;;20.24;41.36;101570.91;4958182;28;2548;-62
2023/04/06 02:40:53;;;;;;;;;;;;;;;20.24;41.19;101563.00;4965024;28;2659;-63
2023/04/06 02:43:24;;;;;;;;;;;;;;;20.26;41.25;101568.13;4970582;28;2028;-63
2023/04/06 02:45:57;;;;;;;;;;;;;;;20.26;41.35;101568.13;4948490;28;2450;-63
2023/04/06 02:48:24;;;;;;;;;;;;;;;20.28;41.15;101571.13;4967534;28;2165;-63
2023/04/06 02:50:51;;;;;;;;;;;;;;;20.28;41.14;101565.38;4953066;28;2704;-62
2023/04/06 02:53:18;;;;;;;;;;;;;;;20.29;41.22;101578.38;4970825;28;1857;-63
2023/04/06 02:55:44;;;;;;;;;;;;;;;20.29;41.16;101578.38;4952011;28;2630;-63
2023/04/06 02:58:11;;;;;;;;;;;;;;;20.29;41.33;101573.38;4953663;28;1918;-63
2023/04/06 03:00:44;;;;;;;;;;;;;;;20.30;41.25;101579.88;4951772;28;2679;-63
2023/04/06 03:03:10;;;;;;;;;;;;;;;20.30;41.21;101577.00;4970070;28;2661;-63
2023/04/06 03:05:37;;;;;;;;;;;;;;;20.30;41.30;101579.88;4952090;28;2244;-63
2023/04/06 03:08:04;;;;;;;;;;;;;;;20.29;41.17;101572.63;4965429;28;2691;-63
2023/04/06 03:10:38;;;;;;;;;;;;;;;20.29;41.31;101572.63;4952940;28;1859;-63
2023/04/06 03:13:05;;;;;;;;;;;;;;;20.29;41.24;101578.38;4951361;28;2491;-63
2023/04/06 03:15:46;;;;;;;;;;;;;;;20.28;41.36;101576.88;4951814;28;2523;-63
2023/04/06 03:18:20;;;;;;;;;;;;;;;20.26;41.25;101580.38;4968813;28;1910;-63
2023/04/06 03:20:47;;;;;;;;;;;;;;;20.26;41.34;101579.63;4952343;28;1853;-63
2023/04/06 03:23:15;;;;;;;;;;;;;;;20.27;41.28;101575.38;4969348;28;1735;-63
2023/04/06 03:25:43;;;;;;;;;;;;;;;20.27;41.37;101578.25;4969027;28;2659;-63
2023/04/06 03:28:14;;;;;;;;;;;;;;;20.27;41.35;101579.03;4970200;28;1707;-63
2023/04/06 03:30:51;;;;;;;;;;;;;;;20.26;41.24;101583.25;4950814;28;1656;-63
2023/04/06 03:33:27;;;;;;;;;;;;;;;20.27;41.33;101586.88;4965591;28;1659;-62
2023/04/06 03:35:54;;;;;;;;;;;;;;;20.25;41.38;101586.78;4953500;28;2790;-64
2023/04/06 03:38:24;;;;;;;;;;;;;;;20.25;41.35;101589.66;4953096;28;1919;-62
2023/04/06 03:40:50;;;;;;;;;;;;;;;20.25;41.42;101575.28;4970502;28;2493;-63
2023/04/06 03:43:21;;;;;;;;;;;;;;;20.25;41.43;101586.78;4967860;28;1810;-63
2023/04/06 03:45:47;;;;;;;;;;;;;;;20.27;41.18;101598.38;4968681;28;2556;-63
2023/04/06 03:48:14;;;;;;;;;;;;;;;20.26;41.26;101597.63;4967681;28;1901;-63
2023/04/06 03:50:41;;;;;;;;;;;;;;;20.27;41.13;101598.38;4967842;28;2561;-63
2023/04/06 03:53:08;;;;;;;;;;;;;;;20.29;41.27;101601.38;4969472;28;1649;-63
2023/04/06 03:55:35;;;;;;;;;;;;;;;20.29;41.26;101601.38;4968187;28;2710;-62
2023/04/06 03:58:02;;;;;;;;;;;;;;;20.30;41.25;101611.53;4969185;28;1982;-63
2023/04/06 04:00:28;;;;;;;;;;;;;;;20.30;41.35;101605.78;4968171;28;2449;-62
2023/04/06 04:02:55;;;;;;;;;;;;;;;20.31;41.28;101610.13;4969053;28;1785;-62
2023/04/06 04:05:24;;;;;;;;;;;;;;;20.32;41.18;101611.66;4968496;28;2618;-63
2023/04/06 04:07:52;;;;;;;;;;;;;;;20.31;41.32;101613.00;4966574;28;2671;-62
2023/04/06 04:10:21;;;;;;;;;;;;;;;20.32;41.40;101616.63;4951740;28;1811;-63
2023/04/06 04:12:48;;;;;;;;;;;;;;;20.30;41.31;101620.88;4968264;28;1665;-63
2023/04/06 04:15:14;;;;;;;;;;;;;;;20.29;41.22;101613.66;4967702;28;2386;-63
2023/04/06 04:17:40;;;;;;;;;;;;;;;20.29;41.36;101618.63;4966946;28;3046;-63
2023/04/06 04:20:10;;;;;;;;;;;;;;;20.29;41.27;101618.63;4966821;28;2650;-63
2023/04/06 04:22:36;;;;;;;;;;;;;;;20.28;41.17;101617.16;4968824;28;2322;-63
2023/04/06 04:25:03;;;;;;;;;;;;;;;20.27;41.36;101610.66;4967184;28;1695;-63
2023/04/06 04:27:31;;;;;;;;;;;;;;;20.28;41.32;101611.41;4964837;28;2649;-63
2023/04/06 04:29:58;;;;;;;;;;;;;;;20.28;41.30;101615.03;4951530;28;2643;-63
2023/04/06 04:32:27;;;;;;;;;;;;;;;20.28;41.21;101617.16;4966806;28;2652;-63
2023/04/06 04:34:55;;;;;;;;;;;;;;;20.27;41.33;101622.16;4947970;28;2659;-63
2023/04/06 04:37:34;;;;;;;;;;;;;;;20.27;41.24;101615.63;4951876;28;1919;-63
2023/04/06 04:40:02;;;;;;;;;;;;;;;20.27;41.30;101615.63;4950717;28;1891;-63
2023/04/06 04:42:33;;;;;;;;;;;;;;;20.26;41.45;101619.91;4968015;28;1636;-63
2023/04/06 04:45:00;;;;;;;;;;;;;;;20.26;41.39;101626.41;4945344;28;2541;-64
2023/04/06 04:47:34;;;;;;;;;;;;;;;20.30;41.30;101620.16;4944150;28;1877;-63
2023/04/06 04:50:02;;;;;;;;;;;;;;;20.30;41.23;101620.88;4964539;28;2826;-62
2023/04/06 04:52:29;;;;;;;;;;;;;;;20.30;41.00;101617.28;4968103;28;1702;-64
2023/04/06 04:55:06;;;;;;;;;;;;;;;20.29;41.01;101624.38;4950578;28;2604;-64
2023/04/06 04:57:32;;;;;;;;;;;;;;;20.30;40.98;101620.16;4968660;28;1892;-64
2023/04/06 04:59:58;;;;;;;;;;;;;;;20.33;40.98;101623.88;4968287;28;2630;-63
2023/04/06 05:02:25;;;;;;;;;;;;;;;20.33;41.02;101624.63;4966976;28;2712;-63
2023/04/06 05:05:10;;;;;;;;;;;;;;;20.33;40.69;101621.00;4968030;28;2634;-61
2023/04/06 05:07:38;;;;;;;;;;;;;;;20.34;40.90;101626.16;4967744;28;1933;-63
2023/04/06 05:10:07;;;;;;;;;;;;;;;20.34;40.68;101631.91;4946315;28;2629;-63
2023/04/06 05:12:39;;;;;;;;;;;;;;;20.37;40.73;101630.63;4966621;28;1801;-64
2023/04/06 05:15:08;;;;;;;;;;;;;;;20.36;40.90;101632.00;4949427;28;2898;-64
2023/04/06 05:17:36;;;;;;;;;;;;;;;20.36;40.88;101634.13;4950906;28;2688;-64
2023/04/06 05:20:03;;;;;;;;;;;;;;;20.34;40.99;101631.13;4964639;28;1848;-64
2023/04/06 05:22:34;;;;;;;;;;;;;;;20.34;40.97;101636.88;4965839;28;2664;-64
2023/04/06 05:25:06;;;;;;;;;;;;;;;20.34;41.08;101637.66;4950630;28;1674;-64
2023/04/06 05:27:32;;;;;;;;;;;;;;;20.33;41.04;101639.00;4950649;28;2179;-64
2023/04/06 05:30:04;;;;;;;;;;;;;;;20.34;41.13;101637.66;4967122;28;1849;-64
2023/04/06 05:32:35;;;;;;;;;;;;;;;20.34;41.09;101637.66;4942564;28;1649;-64
2023/04/06 05:35:02;;;;;;;;;;;;;;;20.33;41.15;101644.78;4949093;28;2670;-64
2023/04/06 05:37:28;;;;;;;;;;;;;;;20.37;41.10;101653.63;4945861;28;2867;-64
2023/04/06 05:39:55;;;;;;;;;;;;;;;20.35;41.10;101639.13;4950533;28;2687;-64
2023/04/06 05:42:22;;;;;;;;;;;;;;;20.37;40.98;101647.88;4965315;28;2761;-64
2023/04/06 05:44:55;;;;;;;;;;;;;;;20.38;41.14;101643.63;4967525;28;2699;-64
2023/04/06 05:47:21;;;;;;;;;;;;;;;20.39;41.12;101644.41;4947864;28;2653;-64
2023/04/06 05:49:55;;;;;;;;;;;;;;;20.39;41.29;101644.41;4952178;28;2628;-64
2023/04/06 05:52:31;;;;;;;;;;;;;;;20.37;41.24;101650.78;4970319;28;2823;-64
2023/04/06 05:54:58;;;;;;;;;;;;;;;20.35;41.35;101644.88;4953777;28;2698;-64
2023/04/06 05:57:25;;;;;;;;;;;;;;;20.38;41.33;101642.88;4970633;28;1661;-64
2023/04/06 05:59:53;;;;;;;;;;;;;;;20.37;41.39;101647.88;4953790;28;1918;-64
2023/04/06 06:02:21;;;;;;;;;;;;;;;20.39;41.31;101645.13;4970549;28;1984;-64
2023/04/06 06:04:50;;;;;;;;;;;;;;;20.41;41.42;101656.75;4969850;28;1775;-64
2023/04/06 06:07:17;;;;;;;;;;;;;;;20.44;41.23;101652.63;4951482;28;2610;-64
2023/04/06 06:09:51;;;;;;;;;;;;;;;20.44;41.34;101644.00;4953510;28;1874;-64
2023/04/06 06:12:26;;;;;;;;;;;;;;;20.46;41.38;101652.75;4945998;28;2838;-64
2023/04/06 06:14:53;;;;;;;;;;;;;;;20.50;41.06;101655.84;4954484;28;1637;-64
2023/04/06 06:17:21;;;;;;;;;;;;;;;20.53;41.03;101655.97;4950522;28;2502;-64
2023/04/06 06:19:49;;;;;;;;;;;;;;;20.49;41.23;101648.59;4956923;28;2819;-64
2023/04/06 06:22:15;;;;;;;;;;;;;;;20.52;41.25;101652.34;4965773;28;2479;-64
2023/04/06 06:24:44;;;;;;;;;;;;;;;20.52;41.13;101646.56;4969212;28;2750;-64
2023/04/06 06:27:11;;;;;;;;;;;;;;;20.52;41.30;101658.09;4971426;28;2603;-64
2023/04/06 06:29:38;;;;;;;;;;;;;;;20.54;41.08;101655.34;4953120;28;2484;-64
2023/04/06 06:32:05;;;;;;;;;;;;;;;20.54;41.15;101654.59;4953871;28;1731;-64
2023/04/06 06:34:31;;;;;;;;;;;;;;;20.51;41.29;101657.34;4952384;28;2891;-63
2023/04/06 06:37:02;;;;;;;;;;;;;;;20.54;41.05;101654.59;4944771;28;1888;-63
2023/04/06 06:39:28;;;;;;;;;;;;;;;20.53;41.12;101659.59;4967492;28;2687;-64
2023/04/06 06:41:55;;;;;;;;;;;;;;;20.53;41.18;101658.84;4968451;28;2554;-64
2023/04/06 06:44:40;;;;;;;;;;;;;;;20.53;41.19;101659.59;4969262;28;2627;-63
2023/04/06 06:47:06;;;;;;;;;;;;;;;20.53;41.27;101658.84;4969312;28;2186;-63
2023/04/06 06:49:32;;;;;;;;;;;;;;;20.53;41.30;101668.22;4970517;28;2386;-64
2023/04/06 06:51:59;;;;;;;;;;;;;;;20.54;41.14;101660.34;4952603;28;2664;-63
2023/04/06 06:54:25;;;;;;;;;;;;;;;20.53;41.17;101659.59;4969548;28;1781;-63
2023/04/06 06:56:51;;;;;;;;;;;;;;;20.56;41.27;101657.59;4970624;28;2024;-63
2023/04/06 06:59:18;;;;;;;;;;;;;;;20.57;41.22;101659.09;4967904;28;2662;-63
2023/04/06 07:01:45;;;;;;;;;;;;;;;20.58;41.05;101657.75;4951921;28;2683;-63
2023/04/06 07:04:11;;;;;;;;;;;;;;;20.60;41.16;101657.84;4968238;28;2635;-63
2023/04/06 07:06:38;;;;;;;;;;;;;;;20.59;41.24;101656.34;4969805;28;1771;-64
2023/04/06 07:09:05;;;;;;;;;;;;;;;20.60;41.19;101654.97;4948505;28;3051;-63
2023/04/06 07:11:32;;;;;;;;;;;;;;;20.60;41.23;101654.97;4969219;28;2484;-63
2023/04/06 07:13:58;;;;;;;;;;;;;;;20.60;41.23;101657.84;4969488;28;2671;-64
2023/04/06 07:16:25;;;;;;;;;;;;;;;20.60;41.15;101652.84;4952247;28;2629;-64
2023/04/06 07:18:52;;;;;;;;;;;;;;;20.60;41.27;101657.84;4954594;28;2533;-63
2023/04/06 07:21:19;;;;;;;;;;;;;;;20.62;41.28;101660.84;4970472;28;1702;-63
2023/04/06 07:23:47;;;;;;;;;;;;;;;20.61;41.20;101665.09;4954442;28;1857;-63
2023/04/06 07:26:15;;;;;;;;;;;;;;;20.64;41.13;101663.84;4951051;28;1810;-63
2023/04/06 07:28:41;;;;;;;;;;;;;;;20.63;41.13;101665.97;4967947;28;1675;-63
2023/04/06 07:31:08;;;;;;;;;;;;;;;20.63;41.24;101665.22;4950797;28;2292;-63
2023/04/06 07:33:35;;;;;;;;;;;;;;;20.65;41.13;101665.34;4968321;28;2013;-63
2023/04/06 07:36:01;;;;;;;;;;;;;;;20.69;41.21;101665.59;4952754;28;1856;-63
2023/04/06 07:38:28;;;;;;;;;;;;;;;20.68;41.09;101661.19;4967975;28;1914;-63
2023/04/06 07:40:55;;;;;;;;;;;;;;;20.67;41.36;101656.81;4949362;28;1936;-63
2023/04/06 07:43:22;;;;;;;;;;;;;;;20.68;41.28;101652.56;4951260;28;2010;-63
2023/04/06 07:45:48;;;;;;;;;;;;;;;20.70;41.09;101661.31;4952277;28;1889;-63
2023/04/06 07:48:16;;;;;;;;;;;;;;;20.70;41.19;101667.06;4968464;28;1629;-63
2023/04/06 07:50:42;;;;;;;;;;;;;;;20.70;41.15;101655.56;4953277;28;1834;-63
2023/04/06 07:53:09;;;;;;;;;;;;;;;20.67;41.22;101657.56;4967978;28;1779;-63
2023/04/06 07:55:37;;;;;;;;;;;;;;;20.69;41.23;101654.06;4968395;28;1731;-63
2023/04/06 07:58:03;;;;;;;;;;;;;;;20.66;41.19;101655.31;4969867;28;1863;-63
2023/04/06 08:00:30;;;;;;;;;;;;;;;20.67;41.27;101654.69;4969031;28;1974;-64
2023/04/06 08:02:56;;;;;;;;;;;;;;;20.67;41.12;101662.59;4969057;28;1876;-63
2023/04/06 08:05:22;;;;;;;;;;;;;;;20.68;41.04;101661.19;4969790;28;1773;-63
2023/04/06 08:07:49;;;;;;;;;;;;;;;20.68;41.11;101652.56;4969223;28;2501;-63
2023/04/06 08:10:15;;;;;;;;;;;;;;;20.67;41.29;101656.81;4967612;28;2850;-63
2023/04/06 08:12:41;;;;;;;;;;;;;;;20.68;41.11;101656.22;4967498;28;2671;-63
2023/04/06 08:15:08;;;;;;;;;;;;;;;20.66;41.13;101649.56;4969286;28;2031;-63
2023/04/06 08:17:34;;;;;;;;;;;;;;;20.66;41.15;101649.56;4968717;28;2461;-63
2023/04/06 08:20:03;;;;;;;;;;;;;;;20.65;41.22;101653.84;4969258;28;2707;-63
2023/04/06 08:22:29;;;;;;;;;;;;;;;20.65;41.28;101659.59;4968782;28;2674;-63
2023/04/06 08:24:55;;;;;;;;;;;;;;;20.66;41.22;101661.84;4970219;28;1781;-63
2023/04/06 08:27:22;;;;;;;;;;;;;;;20.66;41.19;101656.09;4968531;28;2619;-63
2023/04/06 08:29:49;;;;;;;;;;;;;;;20.66;41.13;101655.31;4968247;28;1868;-63
2023/04/06 08:32:15;;;;;;;;;;;;;;;20.65;41.10;101659.59;4968212;28;2642;-63
2023/04/06 08:34:41;;;;;;;;;;;;;;;20.65;41.17;101653.84;4968075;28;1734;-63
2023/04/06 08:37:08;;;;;;;;;;;;;;;20.64;41.13;101669.59;4968404;28;2659;-63
2023/04/06 08:39:34;;;;;;;;;;;;;;;20.63;41.18;101657.34;4967841;28;1950;-63
2023/04/06 08:42:02;;;;;;;;;;;;;;;20.62;41.19;101667.34;4967345;28;2718;-63
2023/04/06 08:44:29;;;;;;;;;;;;;;;20.64;41.33;101655.22;4968818;28;2682;-63
2023/04/06 08:46:56;;;;;;;;;;;;;;;20.64;41.15;101670.34;4969252;28;1955;-63
2023/04/06 08:49:22;;;;;;;;;;;;;;;20.63;41.15;101656.59;4969359;28;2248;-63
2023/04/06 08:51:49;;;;;;;;;;;;;;;20.64;41.13;101658.09;4966564;28;2898;-62
2023/04/06 08:54:15;;;;;;;;;;;;;;;20.65;41.12;101657.44;4964810;28;2883;-63
2023/04/06 08:56:41;;;;;;;;;;;;;;;20.65;41.26;101665.34;4967678;28;2631;-63
2023/04/06 08:59:08;;;;;;;;;;;;;;;20.62;41.40;101660.84;4966401;28;3017;-63
2023/04/06 09:01:36;;;;;;;;;;;;;;;20.59;41.30;101662.09;4968124;28;1868;-64
2023/04/06 09:04:04;;;;;;;;;;;;;;;20.60;41.28;101663.63;4968829;28;2681;-63
2023/04/06 09:06:31;;;;;;;;;;;;;;;20.60;41.33;101658.59;4966353;28;1863;-64
2023/04/06 09:08:58;;;;;;;;;;;;;;;20.60;41.34;101652.09;4968798;28;1734;-63
2023/04/06 09:11:24;;;;;;;;;;;;;;;20.62;41.39;101660.84;4967440;28;2400;-63
2023/04/06 09:13:52;;;;;;;;;;;;;;;20.63;41.32;101650.84;4966771;28;2563;-63
2023/04/06 09:16:19;;;;;;;;;;;;;;;20.65;41.40;101653.84;4967866;28;2816;-63
2023/04/06 09:18:45;;;;;;;;;;;;;;;20.66;41.46;101655.31;4964251;28;2116;-63
2023/04/06 09:21:12;;;;;;;;;;;;;;;20.67;41.57;101651.06;4970033;28;1694;-63
2023/04/06 09:23:38;;;;;;;;;;;;;;;20.60;41.89;101647.09;4971921;28;2023;-63
2023/04/06 09:26:05;;;;;;;;;;;;;;;20.64;42.06;101649.47;4970112;28;2560;-63
2023/04/06 09:28:45;;;;;;;;;;;;;;;20.62;42.05;101643.59;4971756;28;3052;-63
2023/04/06 09:31:12;;;;;;;;;;;;;;;20.64;42.00;101640.84;4968301;28;2812;-64
2023/04/06 09:33:39;;;;;;;;;;;;;;;20.65;42.25;101628.66;4967962;28;2651;-63
2023/04/06 09:36:06;;;;;;;;;;;;;;;20.64;42.39;101630.06;4970657;28;2682;-63
2023/04/06 09:38:32;;;;;;;;;;;;;;;20.61;42.21;101630.56;4970840;28;2631;-63
2023/04/06 09:40:59;;;;;;;;;;;;;;;20.58;42.27;101626.09;4970301;28;2547;-63
2023/04/06 09:43:27;;;;;;;;;;;;;;;20.54;42.51;101634.44;4968900;28;2488;-63
2023/04/06 09:45:53;;;;;;;;;;;;;;;20.51;42.36;101631.44;4969598;28;2532;-63
2023/04/06 09:48:19;;;;;;;;;;;;;;;20.53;41.90;101627.22;4970793;28;2291;-62
2023/04/06 09:50:46;;;;;;;;;;;;;;;20.50;41.84;101627.09;4971645;28;2591;-62
2023/04/06 09:53:12;;;;;;;;;;;;;;;20.48;41.54;101621.22;4958032;28;2596;-63
2023/04/06 09:55:42;;;;;;;;;;;;;;;20.46;40.87;101621.09;4969260;28;1626;-64
2023/04/06 09:58:09;;;;;;;;;;;;;;;20.45;39.17;101619.59;4970528;28;1881;-63
2023/04/06 10:00:50;;;;;;;;;;;;;;;20.46;39.19;101621.09;4969225;28;2670;-63
2023/04/06 10:03:22;;;;;;;;;;;;;;;20.49;40.69;101614.06;4952814;28;2472;-62
2023/04/06 10:05:58;;;;;;;;;;;;;;;20.55;40.38;101619.44;4969678;28;2311;-62
2023/04/06 10:08:25;;;;;;;;;;;;;;;20.51;40.13;101613.44;4969254;28;2619;-63
2023/04/06 10:10:51;;;;;;;;;;;;;;;20.55;40.25;101610.03;4970635;28;1819;-63
2023/04/06 10:13:17;;;;;;;;;;;;;;;20.54;40.09;101608.56;4965876;28;1876;-63
2023/04/06 10:15:44;;;;;;;;;;;;;;;20.54;40.20;101611.44;4969353;28;1746;-63
2023/04/06 10:18:10;;;;;;;;;;;;;;;20.53;40.14;101604.19;4968395;28;1832;-63
2023/04/06 10:20:39;;;;;;;;;;;;;;;20.55;40.00;101607.16;4971235;28;1981;-63
2023/04/06 10:23:10;;;;;;;;;;;;;;;20.54;39.95;101594.16;4954498;28;1585;-63
2023/04/06 10:25:37;;;;;;;;;;;;;;;20.54;40.02;101602.78;4969024;28;1584;-63
2023/04/06 10:28:07;;;;;;;;;;;;;;;20.56;39.92;101597.16;4968739;28;1701;-63
2023/04/06 10:30:33;;;;;;;;;;;;;;;20.56;40.03;101606.56;4971248;28;1636;-63
2023/04/06 10:33:00;;;;;;;;;;;;;;;20.54;40.02;101597.78;4968373;28;1684;-63
2023/04/06 10:35:36;;;;;;;;;;;;;;;20.55;40.00;101593.53;4966068;28;1697;-63
2023/04/06 10:38:02;;;;;;;;;;;;;;;20.56;40.20;101589.31;4967162;28;1692;-63
2023/04/06 10:40:31;;;;;;;;;;;;;;;20.57;40.13;101598.69;4968762;28;1988;-63
2023/04/06 10:43:06;;;;;;;;;;;;;;;20.55;40.12;101605.06;4968723;28;1659;-63
2023/04/06 10:45:33;;;;;;;;;;;;;;;20.56;40.19;101600.03;4970026;28;1866;-63
2023/04/06 10:47:59;;;;;;;;;;;;;;;20.57;40.17;101590.03;4969764;28;1855;-63
2023/04/06 10:50:26;;;;;;;;;;;;;;;20.56;40.13;101588.53;4970552;28;1645;-63
2023/04/06 10:52:59;;;;;;;;;;;;;;;20.55;40.33;101592.78;4959355;28;1701;-63
2023/04/06 10:55:25;;;;;;;;;;;;;;;20.57;40.36;101592.91;4968394;28;1854;-63
2023/04/06 10:57:52;;;;;;;;;;;;;;;20.54;40.41;101597.03;4969884;28;1647;-63
2023/04/06 11:00:19;;;;;;;;;;;;;;;20.55;40.28;101599.31;4965363;28;1964;-63
2023/04/06 11:02:46;;;;;;;;;;;;;;;20.57;40.31;101601.56;4970024;28;1630;-63
2023/04/06 11:05:13;;;;;;;;;;;;;;;20.56;40.29;101597.16;4969039;28;1845;-63
2023/04/06 11:07:39;;;;;;;;;;;;;;;20.57;40.44;101590.81;4968128;28;1552;-63
2023/04/06 11:10:06;;;;;;;;;;;;;;;20.58;40.49;101586.53;4968599;28;1857;-63
2023/04/06 11:12:42;;;;;;;;;;;;;;;20.56;40.52;101574.16;4966259;28;2630;-63
2023/04/06 11:15:09;;;;;;;;;;;;;;;20.57;40.54;101572.78;4967717;28;1881;-63
2023/04/06 11:17:35;;;;;;;;;;;;;;;20.58;40.38;101580.03;4965913;28;1649;-63
2023/04/06 11:20:03;;;;;;;;;;;;;;;20.57;40.52;101581.41;4967056;28;2504;-63
2023/04/06 11:22:30;;;;;;;;;;;;;;;20.58;40.36;101582.91;4966968;28;2409;-62
2023/04/06 11:25:06;;;;;;;;;;;;;;;20.56;40.50;101571.25;4969840;28;1623;-63
2023/04/06 11:27:33;;;;;;;;;;;;;;;20.58;40.47;101577.91;4967415;28;2524;-61
2023/04/06 11:30:00;;;;;;;;;;;;;;;20.06;36.55;101579.94;4968023;28;1639;-61
2023/04/06 11:32:26;;;;;;;;;;;;;;;19.72;33.35;101569.25;4954488;28;1724;-61
2023/04/06 11:34:52;;;;;;;;;;;;;;;19.72;31.77;101564.25;4967847;28;1799;-60
2023/04/06 11:37:19;;;;;;;;;;;;;;;19.78;31.48;101564.63;4966591;28;2479;-63
2023/04/06 11:39:49;;;;;;;;;;;;;;;20.01;36.48;101558.06;4967311;28;1910;-62
2023/04/06 11:42:25;;;;;;;;;;;;;;;20.26;36.21;101554.50;4961099;28;2596;-62
2023/04/06 11:44:53;;;;;;;;;;;;;;;20.36;36.43;101559.34;4968365;28;2634;-62
2023/04/06 11:47:20;;;;;;;;;;;;;;;20.34;36.68;101557.13;4966747;28;2650;-62
2023/04/06 11:49:47;;;;;;;;;;;;;;;20.38;36.39;101557.31;4969045;28;2686;-62
2023/04/06 11:52:14;;;;;;;;;;;;;;;20.41;36.58;101553.19;4968714;28;1818;-61
2023/04/06 11:54:40;;;;;;;;;;;;;;;20.39;37.21;101558.84;4967674;28;1759;-61
2023/04/06 11:57:07;;;;;;;;;;;;;;;20.46;36.91;101552.03;4967463;28;2679;-61
2023/04/06 11:59:33;;;;;;;;;;;;;;;20.50;36.42;101546.53;4965121;28;2648;-62
2023/04/06 12:02:00;;;;;;;;;;;;;;;20.50;36.44;101543.66;4968488;28;1755;-62
2023/04/06 12:04:27;;;;;;;;;;;;;;;20.51;36.64;101542.25;4966768;28;2639;-62
2023/04/06 12:06:53;;;;;;;;;;;;;;;20.51;37.04;101548.00;4969034;28;2847;-61
2023/04/06 12:09:20;;;;;;;;;;;;;;;20.54;37.20;101543.13;4969812;28;1508;-62
2023/04/06 12:11:46;;;;;;;;;;;;;;;20.52;37.46;101537.25;4967574;28;2434;-61
2023/04/06 12:14:12;;;;;;;;;;;;;;;20.53;37.63;101533.00;4967880;28;2297;-61
2023/04/06 12:16:39;;;;;;;;;;;;;;;20.50;37.76;101532.16;4965854;28;2614;-62
2023/04/06 12:19:05;;;;;;;;;;;;;;;20.54;37.90;101539.50;4968129;28;1853;-62
2023/04/06 12:21:32;;;;;;;;;;;;;;;20.47;38.16;101542.03;4965895;28;2686;-60
2023/04/06 12:23:59;;;;;;;;;;;;;;;20.14;36.34;101535.81;4968221;28;2549;-61
2023/04/06 12:26:26;;;;;;;;;;;;;;;20.29;38.13;101538.88;4968035;28;2422;-61
2023/04/06 12:28:52;;;;;;;;;;;;;;;20.40;38.07;101536.56;4966908;28;1656;-62
2023/04/06 12:31:19;;;;;;;;;;;;;;;20.40;37.54;101534.44;4967662;28;2505;-61
2023/04/06 12:33:46;;;;;;;;;;;;;;;20.42;37.05;101525.19;4964160;28;1695;-61
2023/04/06 12:36:13;;;;;;;;;;;;;;;20.38;35.81;101534.31;4967846;28;2647;-61
2023/04/06 12:38:40;;;;;;;;;;;;;;;20.35;37.17;101521.19;4964823;28;2559;-62
2023/04/06 12:41:07;;;;;;;;;;;;;;;20.40;36.97;101525.06;4966563;28;2761;-63
2023/04/06 12:43:33;;;;;;;;;;;;;;;20.44;36.20;101542.56;4966468;28;2528;-60
2023/04/06 12:46:00;;;;;;;;;;;;;;;20.41;35.13;101533.06;4966008;28;2699;-61
2023/04/06 12:48:27;;;;;;;;;;;;;;;20.39;34.16;101529.34;4966000;28;2678;-61
2023/04/06 12:50:54;;;;;;;;;;;;;;;20.36;36.59;101522.69;4963681;28;2991;-61
2023/04/06 12:53:20;;;;;;;;;;;;;;;20.40;36.95;101522.19;4963085;28;2666;-62